Aviation Digital Data Service (ADDS)

Output produced by METARs form (2152 UTC 19 February 2018)
found at http://www.aviationweather.gov/adds/metars/
 
LKCV 192100Z 17002KT CAVOK M02/M05 Q1018 NOSIG RMK BLU+ BLU
TAF AMD LKCV 191700Z 1918/2018 12006KT CAVOK 
     PROB30 
     TEMPO 1921/2003 BKN020 
     BECMG 2005/2007 SCT020 BKN070 
     TEMPO 2007/2011 4000 -SN BKN015
       
LKCV 192100Z 17002KT CAVOK M02/M05 Q1018 NOSIG RMK BLU+ BLU
TAF AMD LKCV 191700Z 1918/2018 12006KT CAVOK 
     PROB30 
     TEMPO 1921/2003 BKN020 
     BECMG 2005/2007 SCT020 BKN070 
     TEMPO 2007/2011 4000 -SN BKN015
       
LKKB 192100Z 10004KT 080V160 CAVOK M04/M06 Q1018
TAF LKKB 191700Z 1918/2018 09005KT CAVOK 
     PROB30 
     TEMPO 2000/2008 4000 BR 
     BECMG 2007/2010 9999 BKN030 
     BECMG 2012/2014 04005KT CAVOK
       
LKKV 192100Z 07005KT CAVOK M05/M06 Q1015
TAF LKKV 191700Z 1918/2100 06004KT CAVOK 
     BECMG 1920/1923 9999 SCT020 
     BECMG 2007/2010 9999 BKN017 
     TEMPO 2010/2017 6000 -SN SCT008 BKN013 
     BECMG 2017/2020 CAVOK
       
LKLN 192100Z AUTO 11005KT 9999 OVC019 M01/M04 Q1016
LKMT 192130Z 21002KT 6000 NSC M07/M09 Q1019 R04/710195 TEMPO 4500 BR
TAF LKMT 191700Z 1918/2100 VRB02KT CAVOK 
     BECMG 1921/1923 3000 BR NSC 
     BECMG 1923/2001 1200 BR SCT005 
     TEMPO 2001/2007 0700 FZFG BKN004 
     BECMG 2004/2007 04008KT 
     BECMG 2007/2010 6000 BKN017 
     BECMG 2010/2012 CAVOK
       
LKNA 192112Z 09007KT CAVOK M04/M06 Q1016 RMK BLU
TAF LKNA 191700Z 1918/2018 11008KT 8000 NSC 
     BECMG 1922/2000 5000 BR BKN015 
     BECMG 2000/2002 3000 BR BKN010 
     PROB30 
     TEMPO 2003/2008 0500 FZFG OVC003 
     BECMG 2008/2010 06008KT 5000 BR BKN020 
     BECMG 2010/2012 8000 SCT030
       
LKPD 192100Z 07004KT CAVOK M02/M05 Q1018 RMK BLU
TAF LKPD 191700Z 1918/2018 10008KT CAVOK 
     BECMG 1920/1923 10005KT
       
LKPR 192130Z 20003KT 9999 BKN022 M03/M05 Q1017 NOSIG
TAF LKPR 191700Z 1918/2100 11005KT CAVOK 
     BECMG 2005/2008 9999 BKN030 
     TEMPO 2008/2013 -SN BKN020 
     BECMG 2013/2016 04006KT CAVOK
       
LKTB 192130Z 07007KT CAVOK M04/M06 Q1018 R27/31//95 NOSIG
TAF LKTB 191700Z 1918/2100 07006KT CAVOK 
     BECMG 2008/2011 9999 BKN030 
     TEMPO 2012/2100 -SN BKN017
       
LKKV 192100Z 07005KT CAVOK M05/M06 Q1015
TAF LKKV 191700Z 1918/2100 06004KT CAVOK 
     BECMG 1920/1923 9999 SCT020 
     BECMG 2007/2010 9999 BKN017 
     TEMPO 2010/2017 6000 -SN SCT008 BKN013 
     BECMG 2017/2020 CAVOK
       
LKKB 192100Z 10004KT 080V160 CAVOK M04/M06 Q1018
TAF LKKB 191700Z 1918/2018 09005KT CAVOK 
     PROB30 
     TEMPO 2000/2008 4000 BR 
     BECMG 2007/2010 9999 BKN030 
     BECMG 2012/2014 04005KT CAVOK
       
LKLN 192100Z AUTO 11005KT 9999 OVC019 M01/M04 Q1016
LKMT 192130Z 21002KT 6000 NSC M07/M09 Q1019 R04/710195 TEMPO 4500 BR
TAF LKMT 191700Z 1918/2100 VRB02KT CAVOK 
     BECMG 1921/1923 3000 BR NSC 
     BECMG 1923/2001 1200 BR SCT005 
     TEMPO 2001/2007 0700 FZFG BKN004 
     BECMG 2004/2007 04008KT 
     BECMG 2007/2010 6000 BKN017 
     BECMG 2010/2012 CAVOK
       
LKNA 192112Z 09007KT CAVOK M04/M06 Q1016 RMK BLU
TAF LKNA 191700Z 1918/2018 11008KT 8000 NSC 
     BECMG 1922/2000 5000 BR BKN015 
     BECMG 2000/2002 3000 BR BKN010 
     PROB30 
     TEMPO 2003/2008 0500 FZFG OVC003 
     BECMG 2008/2010 06008KT 5000 BR BKN020 
     BECMG 2010/2012 8000 SCT030
       
LKPD 192100Z 07004KT CAVOK M02/M05 Q1018 RMK BLU
TAF LKPD 191700Z 1918/2018 10008KT CAVOK 
     BECMG 1920/1923 10005KT
       
LKPR 192130Z 20003KT 9999 BKN022 M03/M05 Q1017 NOSIG
TAF LKPR 191700Z 1918/2100 11005KT CAVOK 
     BECMG 2005/2008 9999 BKN030 
     TEMPO 2008/2013 -SN BKN020 
     BECMG 2013/2016 04006KT CAVOK
       
LKTB 192130Z 07007KT CAVOK M04/M06 Q1018 R27/31//95 NOSIG
TAF LKTB 191700Z 1918/2100 07006KT CAVOK 
     BECMG 2008/2011 9999 BKN030 
     TEMPO 2012/2100 -SN BKN017